^^
TXWeather Station Historical Data
Daily Summary for April 24, 2022 Units:  English    Metric   Both
Daily Weekly Monthly Yearly Custom
  High: Low: Average:
Temperature: 88.0 °F 71.0 °F 78.1 °F
Dew Point: 71.0 °F 66.0 °F 68.8 °F
Humidity: 88% 55% 74%
Wind Speed: 20mph 4mph 10.8mph
Wind Gust: 24mph - -
Wind- - SE
Pressure: 30.0 in 29.9 in -
Precipitation: 0.000 in    
Historical Graphs
 
 
Tabular Data for April 24, 2022
Time Temperature Dew Point Pressure Wind Wind Speed Wind Gust Humidity Rainfall Rate (Hourly) solar
00:04 73.0 °F 67.0 °F 30.0 in SE 9 mph 10 mph 81% 0.000 in 0.00 W/m2
00:09 73.0 °F 67.0 °F 30.0 in SSE 10 mph 12 mph 81% 0.000 in 0.00 W/m2
00:14 73.0 °F 67.0 °F 30.0 in SE 9 mph 13 mph 81% 0.000 in 0.00 W/m2
00:19 73.0 °F 67.0 °F 30.0 in SE 9 mph 11 mph 81% 0.000 in 0.00 W/m2
00:24 73.0 °F 67.0 °F 30.0 in SE 9 mph 11 mph 81% 0.000 in 0.00 W/m2
00:29 73.0 °F 67.0 °F 30.0 in SE 8 mph 9 mph 81% 0.000 in 0.00 W/m2
00:34 73.0 °F 67.0 °F 30.0 in SE 11 mph 12 mph 82% 0.000 in 0.00 W/m2
00:39 73.0 °F 67.0 °F 30.0 in SE 11 mph 12 mph 82% 0.000 in 0.00 W/m2
00:44 73.0 °F 67.0 °F 30.0 in SE 9 mph 12 mph 82% 0.000 in 0.00 W/m2
00:49 73.0 °F 67.0 °F 30.0 in SE 9 mph 15 mph 82% 0.000 in 0.00 W/m2
00:54 73.0 °F 67.0 °F 30.0 in SE 8 mph 15 mph 82% 0.000 in 0.00 W/m2
00:59 73.0 °F 67.0 °F 30.0 in SE 9 mph 9 mph 82% 0.000 in 0.00 W/m2
01:04 73.0 °F 67.0 °F 30.0 in SE 8 mph 10 mph 82% 0.000 in 0.00 W/m2
01:09 73.0 °F 67.0 °F 30.0 in SE 9 mph 9 mph 82% 0.000 in 0.00 W/m2
01:14 73.0 °F 67.0 °F 30.0 in SE 10 mph 11 mph 82% 0.000 in 0.00 W/m2
01:19 73.0 °F 67.0 °F 30.0 in SSE 10 mph 11 mph 82% 0.000 in 0.00 W/m2
01:24 73.0 °F 67.0 °F 29.9 in SE 11 mph 15 mph 82% 0.000 in 0.00 W/m2
01:29 73.0 °F 67.0 °F 29.9 in SE 8 mph 15 mph 82% 0.000 in 0.00 W/m2
01:34 73.0 °F 67.0 °F 29.9 in SE 8 mph 11 mph 83% 0.000 in 0.00 W/m2
01:39 73.0 °F 67.0 °F 30.0 in SE 11 mph 11 mph 83% 0.000 in 0.00 W/m2
01:44 73.0 °F 67.0 °F 29.9 in SE 11 mph 11 mph 83% 0.000 in 0.00 W/m2
01:49 72.0 °F 67.0 °F 29.9 in SE 9 mph 11 mph 83% 0.000 in 0.00 W/m2
01:54 72.0 °F 67.0 °F 29.9 in SE 10 mph 11 mph 83% 0.000 in 0.00 W/m2
01:59 72.0 °F 67.0 °F 29.9 in SE 12 mph 13 mph 83% 0.000 in 0.00 W/m2
02:09 72.0 °F 67.0 °F 29.9 in SE 8 mph 8 mph 83% 0.000 in 0.00 W/m2
02:14 72.0 °F 67.0 °F 29.9 in SSE 11 mph 11 mph 83% 0.000 in 0.00 W/m2
02:19 72.0 °F 67.0 °F 29.9 in SE 8 mph 8 mph 83% 0.000 in 0.00 W/m2
02:24 72.0 °F 67.0 °F 29.9 in SE 8 mph 10 mph 83% 0.000 in 0.00 W/m2
02:29 72.0 °F 67.0 °F 29.9 in SE 8 mph 9 mph 84% 0.000 in 0.00 W/m2
02:34 72.0 °F 67.0 °F 29.9 in SSE 8 mph 9 mph 84% 0.000 in 0.00 W/m2
02:39 72.0 °F 67.0 °F 29.9 in SSE 5 mph 8 mph 84% 0.000 in 0.00 W/m2
02:44 72.0 °F 67.0 °F 29.9 in SE 8 mph 10 mph 84% 0.000 in 0.00 W/m2
02:49 72.0 °F 67.0 °F 29.9 in SE 8 mph 10 mph 84% 0.000 in 0.00 W/m2
02:54 72.0 °F 67.0 °F 29.9 in SE 13 mph 13 mph 84% 0.000 in 0.00 W/m2
02:59 72.0 °F 67.0 °F 29.9 in SE 7 mph 11 mph 84% 0.000 in 0.00 W/m2
03:04 72.0 °F 67.0 °F 29.9 in SE 8 mph 9 mph 84% 0.000 in 0.00 W/m2
03:09 72.0 °F 67.0 °F 29.9 in SSE 8 mph 8 mph 84% 0.000 in 0.00 W/m2
03:14 72.0 °F 67.0 °F 29.9 in SSE 10 mph 10 mph 84% 0.000 in 0.00 W/m2
03:19 72.0 °F 67.0 °F 29.9 in SE 6 mph 10 mph 84% 0.000 in 0.00 W/m2
03:24 72.0 °F 67.0 °F 29.9 in SSE 9 mph 10 mph 84% 0.000 in 0.00 W/m2
03:29 72.0 °F 67.0 °F 29.9 in SE 8 mph 9 mph 84% 0.000 in 0.00 W/m2
03:34 72.0 °F 67.0 °F 29.9 in SE 10 mph 11 mph 84% 0.000 in 0.00 W/m2
03:39 72.0 °F 67.0 °F 29.9 in SE 7 mph 11 mph 84% 0.000 in 0.00 W/m2
03:44 72.0 °F 67.0 °F 29.9 in SE 8 mph 9 mph 84% 0.000 in 0.00 W/m2
03:49 71.0 °F 67.0 °F 29.9 in SE 8 mph 9 mph 85% 0.000 in 0.00 W/m2
03:54 71.0 °F 67.0 °F 29.9 in SE 8 mph 9 mph 85% 0.000 in 0.00 W/m2
03:59 71.0 °F 66.0 °F 29.9 in SE 8 mph 10 mph 84% 0.000 in 0.00 W/m2
04:04 71.0 °F 67.0 °F 29.9 in SSE 7 mph 9 mph 85% 0.000 in 0.00 W/m2
04:09 71.0 °F 67.0 °F 29.9 in SE 9 mph 9 mph 85% 0.000 in 0.00 W/m2
04:14 71.0 °F 67.0 °F 29.9 in SE 5 mph 8 mph 85% 0.000 in 0.00 W/m2
04:19 71.0 °F 67.0 °F 29.9 in SE 5 mph 6 mph 85% 0.000 in 0.00 W/m2
04:24 71.0 °F 67.0 °F 29.9 in SE 8 mph 9 mph 85% 0.000 in 0.00 W/m2
04:29 71.0 °F 67.0 °F 29.9 in SSE 9 mph 10 mph 85% 0.000 in 0.00 W/m2
04:34 71.0 °F 67.0 °F 29.9 in SE 7 mph 10 mph 85% 0.000 in 0.00 W/m2
04:39 71.0 °F 67.0 °F 29.9 in SSE 10 mph 12 mph 85% 0.000 in 0.00 W/m2
04:44 71.0 °F 67.0 °F 29.9 in SSE 10 mph 10 mph 85% 0.000 in 0.00 W/m2
04:49 71.0 °F 67.0 °F 29.9 in SSE 9 mph 10 mph 85% 0.000 in 0.00 W/m2
04:54 71.0 °F 67.0 °F 29.9 in SSE 6 mph 9 mph 85% 0.000 in 0.00 W/m2
04:59 71.0 °F 67.0 °F 29.9 in SE 6 mph 7 mph 85% 0.000 in 0.00 W/m2
05:04 71.0 °F 66.0 °F 29.9 in SE 7 mph 9 mph 84% 0.000 in 0.00 W/m2
05:09 71.0 °F 66.0 °F 29.9 in SE 5 mph 5 mph 84% 0.000 in 0.00 W/m2
05:14 71.0 °F 66.0 °F 29.9 in SE 7 mph 7 mph 84% 0.000 in 0.00 W/m2
05:19 71.0 °F 66.0 °F 29.9 in SE 10 mph 10 mph 84% 0.000 in 0.00 W/m2
05:24 71.0 °F 66.0 °F 29.9 in SE 4 mph 7 mph 84% 0.000 in 0.00 W/m2
05:29 71.0 °F 66.0 °F 29.9 in SE 7 mph 8 mph 84% 0.000 in 0.00 W/m2
05:34 71.0 °F 66.0 °F 29.9 in SE 8 mph 9 mph 84% 0.000 in 0.00 W/m2
05:39 71.0 °F 66.0 °F 29.9 in SE 8 mph 9 mph 85% 0.000 in 0.00 W/m2
05:44 71.0 °F 66.0 °F 29.9 in SE 8 mph 8 mph 85% 0.000 in 0.00 W/m2
05:49 71.0 °F 66.0 °F 29.9 in SE 6 mph 8 mph 85% 0.000 in 0.00 W/m2
05:54 71.0 °F 66.0 °F 29.9 in SE 5 mph 7 mph 85% 0.000 in 0.00 W/m2
05:59 71.0 °F 66.0 °F 29.9 in SE 5 mph 5 mph 85% 0.000 in 0.00 W/m2
06:04 71.0 °F 66.0 °F 29.9 in SE 6 mph 6 mph 85% 0.000 in 0.00 W/m2
06:09 71.0 °F 66.0 °F 29.9 in SE 7 mph 7 mph 85% 0.000 in 0.00 W/m2
06:14 71.0 °F 66.0 °F 29.9 in SE 8 mph 8 mph 85% 0.000 in 0.00 W/m2
06:19 71.0 °F 66.0 °F 29.9 in SE 4 mph 5 mph 86% 0.000 in 0.00 W/m2
06:24 71.0 °F 66.0 °F 29.9 in SE 7 mph 7 mph 86% 0.000 in 0.00 W/m2
06:29 71.0 °F 66.0 °F 29.9 in ESE 7 mph 7 mph 86% 0.000 in 0.00 W/m2
06:34 71.0 °F 66.0 °F 29.9 in SE 7 mph 7 mph 86% 0.000 in 0.00 W/m2
06:39 71.0 °F 66.0 °F 29.9 in SE 8 mph 11 mph 86% 0.000 in 0.00 W/m2
06:44 71.0 °F 66.0 °F 29.9 in SE 10 mph 11 mph 86% 0.000 in 0.00 W/m2
06:49 71.0 °F 66.0 °F 29.9 in SE 9 mph 10 mph 86% 0.000 in 0.00 W/m2
06:54 71.0 °F 66.0 °F 29.9 in SE 9 mph 9 mph 86% 0.000 in 7.00 W/m2
06:59 71.0 °F 67.0 °F 29.9 in SE 8 mph 11 mph 87% 0.000 in 9.00 W/m2
07:04 71.0 °F 67.0 °F 29.9 in SE 8 mph 8 mph 87% 0.000 in 11.00 W/m2
07:09 71.0 °F 67.0 °F 29.9 in SE 8 mph 8 mph 87% 0.000 in 16.00 W/m2
07:14 71.0 °F 67.0 °F 29.9 in SE 9 mph 10 mph 87% 0.000 in 25.00 W/m2
07:19 71.0 °F 67.0 °F 29.9 in SE 10 mph 10 mph 87% 0.000 in 25.00 W/m2
07:24 71.0 °F 67.0 °F 29.9 in SE 7 mph 9 mph 87% 0.000 in 28.00 W/m2
07:29 71.0 °F 67.0 °F 29.9 in SE 7 mph 8 mph 87% 0.000 in 19.00 W/m2
07:34 71.0 °F 67.0 °F 30.0 in SE 9 mph 9 mph 87% 0.000 in 23.00 W/m2
07:39 71.0 °F 67.0 °F 30.0 in SE 8 mph 8 mph 87% 0.000 in 21.00 W/m2
07:44 71.0 °F 67.0 °F 30.0 in SE 7 mph 8 mph 87% 0.000 in 47.00 W/m2
07:49 71.0 °F 67.0 °F 30.0 in SE 7 mph 9 mph 87% 0.000 in 42.00 W/m2
07:54 71.0 °F 67.0 °F 30.0 in SE 9 mph 9 mph 87% 0.000 in 51.00 W/m2
07:59 72.0 °F 68.0 °F 30.0 in SE 7 mph 7 mph 87% 0.000 in 42.00 W/m2
08:04 72.0 °F 68.0 °F 30.0 in SE 10 mph 10 mph 88% 0.000 in 77.00 W/m2
08:09 72.0 °F 68.0 °F 30.0 in SE 10 mph 10 mph 87% 0.000 in 63.00 W/m2
08:14 72.0 °F 68.0 °F 30.0 in SE 12 mph 12 mph 87% 0.000 in 111.00 W/m2
08:19 72.0 °F 68.0 °F 30.0 in SE 11 mph 11 mph 87% 0.000 in 156.00 W/m2
08:24 73.0 °F 68.0 °F 30.0 in SE 10 mph 10 mph 87% 0.000 in 134.00 W/m2
08:29 73.0 °F 69.0 °F 30.0 in SE 11 mph 11 mph 87% 0.000 in 63.00 W/m2
08:34 73.0 °F 69.0 °F 30.0 in SE 9 mph 12 mph 87% 0.000 in 98.00 W/m2
08:39 73.0 °F 69.0 °F 30.0 in SE 9 mph 12 mph 86% 0.000 in 88.00 W/m2
08:44 73.0 °F 69.0 °F 30.0 in SE 7 mph 10 mph 86% 0.000 in 144.00 W/m2
08:49 73.0 °F 69.0 °F 30.0 in SE 7 mph 10 mph 86% 0.000 in 239.00 W/m2
08:54 74.0 °F 69.0 °F 30.0 in SE 7 mph 8 mph 86% 0.000 in 302.00 W/m2
08:59 74.0 °F 69.0 °F 30.0 in SE 9 mph 9 mph 85% 0.000 in 206.00 W/m2
09:04 75.0 °F 69.0 °F 30.0 in SE 9 mph 10 mph 85% 0.000 in 262.00 W/m2
09:09 75.0 °F 70.0 °F 30.0 in SE 11 mph 12 mph 84% 0.000 in 237.00 W/m2
09:14 75.0 °F 70.0 °F 30.0 in SE 7 mph 10 mph 84% 0.000 in 204.00 W/m2
09:19 75.0 °F 69.0 °F 30.0 in SSE 6 mph 9 mph 83% 0.000 in 139.00 W/m2
09:24 75.0 °F 69.0 °F 30.0 in SSE 7 mph 8 mph 82% 0.000 in 151.00 W/m2
09:29 76.0 °F 70.0 °F 30.0 in SSE 7 mph 8 mph 82% 0.000 in 188.00 W/m2
09:34 76.0 °F 70.0 °F 30.0 in SSE 6 mph 6 mph 82% 0.000 in 163.00 W/m2
09:39 76.0 °F 69.0 °F 30.0 in SSE 10 mph 13 mph 81% 0.000 in 156.00 W/m2
09:44 76.0 °F 69.0 °F 30.0 in SE 11 mph 13 mph 80% 0.000 in 186.00 W/m2
09:49 76.0 °F 69.0 °F 30.0 in SSE 12 mph 12 mph 79% 0.000 in 248.00 W/m2
09:54 77.0 °F 69.0 °F 30.0 in SSE 10 mph 10 mph 79% 0.000 in 250.00 W/m2
09:59 77.0 °F 70.0 °F 30.0 in SE 13 mph 16 mph 78% 0.000 in 445.00 W/m2
10:04 78.0 °F 70.0 °F 30.0 in SSE 13 mph 13 mph 78% 0.000 in 647.00 W/m2
10:09 78.0 °F 70.0 °F 30.0 in SE 13 mph 14 mph 76% 0.000 in 276.00 W/m2
10:14 79.0 °F 70.0 °F 30.0 in SE 12 mph 17 mph 74% 0.000 in 773.00 W/m2
10:19 79.0 °F 70.0 °F 30.0 in SE 10 mph 10 mph 74% 0.000 in 777.00 W/m2
10:24 79.0 °F 70.0 °F 30.0 in SE 15 mph 16 mph 73% 0.000 in 777.00 W/m2
10:29 80.0 °F 70.0 °F 30.0 in SE 15 mph 18 mph 71% 0.000 in 756.00 W/m2
10:34 80.0 °F 70.0 °F 30.0 in SE 13 mph 18 mph 71% 0.000 in 793.00 W/m2
10:39 80.0 °F 70.0 °F 30.0 in SSE 10 mph 14 mph 70% 0.000 in 793.00 W/m2
10:44 81.0 °F 70.0 °F 30.0 in SE 13 mph 15 mph 69% 0.000 in 294.00 W/m2
10:49 81.0 °F 69.0 °F 30.0 in SSE 12 mph 15 mph 68% 0.000 in 638.00 W/m2
10:54 81.0 °F 69.0 °F 30.0 in SSE 14 mph 15 mph 68% 0.000 in 789.00 W/m2
10:59 81.0 °F 69.0 °F 30.0 in SE 12 mph 13 mph 67% 0.000 in 264.00 W/m2
11:04 81.0 °F 70.0 °F 30.0 in SSE 11 mph 15 mph 68% 0.000 in 896.00 W/m2
11:09 81.0 °F 69.0 °F 30.0 in SE 15 mph 18 mph 67% 0.000 in 914.00 W/m2
11:14 82.0 °F 69.0 °F 30.0 in SSE 12 mph 18 mph 66% 0.000 in 909.00 W/m2
11:19 82.0 °F 69.0 °F 30.0 in SE 16 mph 18 mph 65% 0.000 in 993.00 W/m2
11:24 83.0 °F 70.0 °F 30.0 in SSE 14 mph 18 mph 65% 0.000 in 1000.00 W/m2
11:29 83.0 °F 70.0 °F 30.0 in SSE 10 mph 15 mph 65% 0.000 in 930.00 W/m2
11:34 83.0 °F 69.0 °F 30.0 in SE 12 mph 14 mph 63% 0.000 in 316.00 W/m2
11:39 83.0 °F 69.0 °F 30.0 in SE 13 mph 18 mph 62% 0.000 in 944.00 W/m2
11:44 83.0 °F 69.0 °F 30.0 in SE 13 mph 18 mph 63% 0.000 in 1021.00 W/m2
11:49 83.0 °F 69.0 °F 30.0 in SE 14 mph 15 mph 63% 0.000 in 1021.00 W/m2
11:54 84.0 °F 70.0 °F 30.0 in SSE 11 mph 14 mph 63% 0.000 in 993.00 W/m2
11:59 84.0 °F 70.0 °F 30.0 in SSE 13 mph 13 mph 63% 0.000 in 993.00 W/m2
12:04 85.0 °F 70.0 °F 30.0 in SSE 15 mph 15 mph 61% 0.000 in 1067.00 W/m2
12:09 85.0 °F 69.0 °F 30.0 in SSE 14 mph 14 mph 60% 0.000 in 1067.00 W/m2
12:14 85.0 °F 69.0 °F 30.0 in SE 11 mph 14 mph 59% 0.000 in 995.00 W/m2
12:19 85.0 °F 69.0 °F 30.0 in SE 15 mph 15 mph 59% 0.000 in 995.00 W/m2
12:24 86.0 °F 69.0 °F 30.0 in SSE 12 mph 16 mph 58% 0.000 in 1109.00 W/m2
12:29 86.0 °F 69.0 °F 30.0 in SSE 11 mph 16 mph 58% 0.000 in 1072.00 W/m2
12:34 86.0 °F 69.0 °F 30.0 in SSE 15 mph 15 mph 58% 0.000 in 327.00 W/m2
12:39 86.0 °F 69.0 °F 30.0 in SE 13 mph 16 mph 58% 0.000 in 1074.00 W/m2
12:44 86.0 °F 69.0 °F 30.0 in SSE 15 mph 17 mph 58% 0.000 in 1067.00 W/m2
12:49 86.0 °F 69.0 °F 30.0 in SSE 12 mph 12 mph 58% 0.000 in 1123.00 W/m2
12:54 86.0 °F 70.0 °F 30.0 in SSE 15 mph 15 mph 59% 0.000 in 1123.00 W/m2
12:59 86.0 °F 70.0 °F 30.0 in SSE 15 mph 15 mph 59% 0.000 in 1071.00 W/m2
13:04 86.0 °F 70.0 °F 30.0 in SSE 12 mph 15 mph 60% 0.000 in 1076.00 W/m2
13:09 86.0 °F 70.0 °F 30.0 in SSE 9 mph 13 mph 59% 0.000 in 928.00 W/m2
13:14 86.0 °F 70.0 °F 30.0 in SE 12 mph 12 mph 59% 0.000 in 276.00 W/m2
13:19 86.0 °F 70.0 °F 30.0 in SSE 14 mph 14 mph 59% 0.000 in 1102.00 W/m2
13:24 86.0 °F 70.0 °F 30.0 in SE 12 mph 16 mph 59% 0.000 in 1102.00 W/m2
13:29 86.0 °F 70.0 °F 30.0 in SSE 12 mph 14 mph 60% 0.000 in 271.00 W/m2
13:39 86.0 °F 70.0 °F 30.0 in SSE 17 mph 23 mph 59% 0.000 in 1062.00 W/m2
13:44 86.0 °F 70.0 °F 30.0 in SSE 19 mph 23 mph 59% 0.000 in 1074.00 W/m2
13:49 86.0 °F 70.0 °F 30.0 in SSE 15 mph 19 mph 58% 0.000 in 1069.00 W/m2
13:54 87.0 °F 70.0 °F 30.0 in SE 19 mph 19 mph 58% 0.000 in 1048.00 W/m2
13:59 87.0 °F 70.0 °F 30.0 in SE 20 mph 24 mph 58% 0.000 in 1063.00 W/m2
14:04 87.0 °F 70.0 °F 30.0 in SE 9 mph 12 mph 58% 0.000 in 1063.00 W/m2
14:09 87.0 °F 70.0 °F 30.0 in South 12 mph 15 mph 59% 0.000 in 1048.00 W/m2
14:14 87.0 °F 71.0 °F 30.0 in SSE 14 mph 19 mph 58% 0.000 in 1071.00 W/m2
14:19 87.0 °F 70.0 °F 30.0 in SE 17 mph 19 mph 56% 0.000 in 1107.00 W/m2
14:24 87.0 °F 69.0 °F 30.0 in SSE 15 mph 15 mph 57% 0.000 in 1107.00 W/m2
14:29 87.0 °F 70.0 °F 30.0 in SE 12 mph 17 mph 58% 0.000 in 997.00 W/m2
14:34 87.0 °F 70.0 °F 30.0 in SE 17 mph 20 mph 57% 0.000 in 991.00 W/m2
14:39 87.0 °F 70.0 °F 30.0 in SSE 15 mph 19 mph 56% 0.000 in 930.00 W/m2
14:44 87.0 °F 70.0 °F 30.0 in SSE 16 mph 18 mph 56% 0.000 in 1014.00 W/m2
14:49 88.0 °F 70.0 °F 30.0 in SE 13 mph 18 mph 56% 0.000 in 940.00 W/m2
14:54 88.0 °F 70.0 °F 30.0 in SE 17 mph 17 mph 55% 0.000 in 1007.00 W/m2
14:59 88.0 °F 69.0 °F 30.0 in SSE 14 mph 20 mph 55% 0.000 in 969.00 W/m2
15:04 88.0 °F 69.0 °F 29.9 in SE 15 mph 16 mph 55% 0.000 in 969.00 W/m2
15:09 88.0 °F 69.0 °F 29.9 in SE 16 mph 18 mph 55% 0.000 in 970.00 W/m2
15:14 87.0 °F 69.0 °F 29.9 in SSE 14 mph 22 mph 55% 0.000 in 949.00 W/m2
15:19 87.0 °F 69.0 °F 29.9 in SE 13 mph 20 mph 56% 0.000 in 267.00 W/m2
15:24 87.0 °F 70.0 °F 29.9 in SE 14 mph 20 mph 57% 0.000 in 921.00 W/m2
15:29 87.0 °F 70.0 °F 29.9 in SSE 16 mph 16 mph 56% 0.000 in 921.00 W/m2
15:34 87.0 °F 70.0 °F 29.9 in SE 16 mph 21 mph 57% 0.000 in 868.00 W/m2
15:39 87.0 °F 69.0 °F 29.9 in SSE 15 mph 16 mph 57% 0.000 in 318.00 W/m2
15:44 87.0 °F 69.0 °F 29.9 in SSE 14 mph 16 mph 57% 0.000 in 318.00 W/m2
15:49 86.0 °F 69.0 °F 29.9 in SE 17 mph 17 mph 58% 0.000 in 239.00 W/m2
15:54 86.0 °F 70.0 °F 29.9 in SE 16 mph 16 mph 59% 0.000 in 838.00 W/m2
15:59 86.0 °F 70.0 °F 29.9 in SSE 12 mph 16 mph 58% 0.000 in 216.00 W/m2
16:04 86.0 °F 70.0 °F 29.9 in SSE 18 mph 19 mph 59% 0.000 in 218.00 W/m2
16:09 86.0 °F 70.0 °F 29.9 in SSE 15 mph 19 mph 60% 0.000 in 225.00 W/m2
16:14 86.0 °F 70.0 °F 29.9 in SE 17 mph 17 mph 60% 0.000 in 216.00 W/m2
16:19 85.0 °F 70.0 °F 29.9 in SSE 11 mph 14 mph 61% 0.000 in 236.00 W/m2
16:24 85.0 °F 70.0 °F 29.9 in SE 13 mph 15 mph 61% 0.000 in 176.00 W/m2
16:29 85.0 °F 70.0 °F 29.9 in SE 13 mph 16 mph 61% 0.000 in 141.00 W/m2
16:34 86.0 °F 70.0 °F 29.9 in SE 14 mph 16 mph 60% 0.000 in 684.00 W/m2
16:39 86.0 °F 70.0 °F 29.9 in SE 15 mph 16 mph 60% 0.000 in 729.00 W/m2
16:44 87.0 °F 70.0 °F 29.9 in SE 15 mph 16 mph 59% 0.000 in 729.00 W/m2
16:49 87.0 °F 70.0 °F 29.9 in SE 15 mph 16 mph 58% 0.000 in 696.00 W/m2
16:54 87.0 °F 71.0 °F 29.9 in SE 15 mph 15 mph 60% 0.000 in 675.00 W/m2
16:59 87.0 °F 71.0 °F 29.9 in SE 16 mph 19 mph 60% 0.000 in 624.00 W/m2
17:04 86.0 °F 71.0 °F 29.9 in SE 17 mph 19 mph 60% 0.000 in 568.00 W/m2
17:09 86.0 °F 71.0 °F 29.9 in SE 16 mph 17 mph 61% 0.000 in 568.00 W/m2
17:14 86.0 °F 71.0 °F 29.9 in SSE 12 mph 16 mph 61% 0.000 in 209.00 W/m2
17:19 85.0 °F 71.0 °F 29.9 in SE 10 mph 14 mph 62% 0.000 in 508.00 W/m2
17:24 85.0 °F 71.0 °F 29.9 in SE 16 mph 16 mph 62% 0.000 in 508.00 W/m2
17:29 85.0 °F 71.0 °F 29.9 in SE 13 mph 15 mph 63% 0.000 in 452.00 W/m2
17:34 85.0 °F 71.0 °F 29.9 in SE 12 mph 14 mph 63% 0.000 in 448.00 W/m2
17:39 85.0 °F 71.0 °F 29.9 in SE 17 mph 17 mph 63% 0.000 in 274.00 W/m2
17:44 85.0 °F 70.0 °F 29.9 in SE 14 mph 14 mph 62% 0.000 in 171.00 W/m2
17:49 84.0 °F 70.0 °F 29.9 in SSE 15 mph 15 mph 63% 0.000 in 113.00 W/m2
17:54 84.0 °F 70.0 °F 29.9 in SSE 14 mph 15 mph 64% 0.000 in 345.00 W/m2
17:59 84.0 °F 70.0 °F 29.9 in SSE 16 mph 16 mph 64% 0.000 in 348.00 W/m2
18:04 84.0 °F 70.0 °F 29.9 in SSE 18 mph 19 mph 64% 0.000 in 306.00 W/m2
18:09 84.0 °F 71.0 °F 29.9 in SE 12 mph 19 mph 65% 0.000 in 299.00 W/m2
18:14 84.0 °F 71.0 °F 29.9 in SE 14 mph 15 mph 65% 0.000 in 283.00 W/m2
18:19 84.0 °F 71.0 °F 29.9 in SE 13 mph 15 mph 65% 0.000 in 265.00 W/m2
18:29 84.0 °F 71.0 °F 29.9 in SSE 16 mph 16 mph 66% 0.000 in 121.00 W/m2
18:34 83.0 °F 71.0 °F 29.9 in SSE 12 mph 16 mph 67% 0.000 in 54.00 W/m2
18:39 83.0 °F 71.0 °F 29.9 in SE 13 mph 13 mph 67% 0.000 in 56.00 W/m2
18:44 82.0 °F 70.0 °F 29.9 in SE 13 mph 14 mph 68% 0.000 in 156.00 W/m2
18:49 82.0 °F 70.0 °F 29.9 in SSE 12 mph 13 mph 68% 0.000 in 142.00 W/m2
18:54 82.0 °F 70.0 °F 29.9 in SE 15 mph 16 mph 69% 0.000 in 134.00 W/m2
18:59 81.0 °F 70.0 °F 29.9 in SSE 12 mph 16 mph 69% 0.000 in 53.00 W/m2
19:04 81.0 °F 70.0 °F 29.9 in SSE 13 mph 14 mph 69% 0.000 in 53.00 W/m2
19:09 81.0 °F 70.0 °F 29.9 in SSE 11 mph 14 mph 69% 0.000 in 42.00 W/m2
19:14 81.0 °F 70.0 °F 29.9 in SE 18 mph 18 mph 70% 0.000 in 33.00 W/m2
19:19 81.0 °F 70.0 °F 29.9 in SSE 12 mph 18 mph 70% 0.000 in 28.00 W/m2
19:24 81.0 °F 70.0 °F 29.9 in SE 9 mph 11 mph 70% 0.000 in 32.00 W/m2
19:29 80.0 °F 70.0 °F 29.9 in SE 11 mph 12 mph 71% 0.000 in 32.00 W/m2
19:34 80.0 °F 70.0 °F 29.9 in SE 14 mph 19 mph 71% 0.000 in 19.00 W/m2
19:39 80.0 °F 70.0 °F 29.9 in SSE 11 mph 15 mph 71% 0.000 in 16.00 W/m2
19:44 80.0 °F 70.0 °F 29.9 in SE 17 mph 17 mph 71% 0.000 in 12.00 W/m2
19:49 80.0 °F 70.0 °F 29.9 in SE 9 mph 11 mph 72% 0.000 in 9.00 W/m2
19:54 80.0 °F 70.0 °F 29.9 in SE 10 mph 13 mph 72% 0.000 in 5.00 W/m2
19:59 79.0 °F 69.0 °F 29.9 in SSE 12 mph 13 mph 72% 0.000 in 0.00 W/m2
20:04 79.0 °F 70.0 °F 29.9 in SE 14 mph 16 mph 73% 0.000 in 0.00 W/m2
20:09 79.0 °F 70.0 °F 29.9 in SSE 13 mph 13 mph 73% 0.000 in 0.00 W/m2
20:14 79.0 °F 70.0 °F 29.9 in SE 12 mph 14 mph 74% 0.000 in 0.00 W/m2
20:19 79.0 °F 70.0 °F 29.9 in SSE 15 mph 15 mph 74% 0.000 in 0.00 W/m2
20:24 79.0 °F 70.0 °F 29.9 in SE 14 mph 14 mph 74% 0.000 in 0.00 W/m2
20:29 79.0 °F 70.0 °F 29.9 in SSE 11 mph 14 mph 74% 0.000 in 0.00 W/m2
20:34 79.0 °F 70.0 °F 29.9 in SE 10 mph 13 mph 75% 0.000 in 0.00 W/m2
20:39 78.0 °F 70.0 °F 29.9 in SE 12 mph 15 mph 75% 0.000 in 0.00 W/m2
20:44 78.0 °F 70.0 °F 29.9 in SSE 10 mph 13 mph 75% 0.000 in 0.00 W/m2
20:49 78.0 °F 70.0 °F 29.9 in SSE 10 mph 14 mph 76% 0.000 in 0.00 W/m2
20:54 78.0 °F 70.0 °F 29.9 in SE 7 mph 9 mph 76% 0.000 in 0.00 W/m2
20:59 78.0 °F 70.0 °F 29.9 in SSE 6 mph 8 mph 77% 0.000 in 0.00 W/m2
21:04 78.0 °F 70.0 °F 29.9 in SE 9 mph 9 mph 77% 0.000 in 0.00 W/m2
21:09 78.0 °F 70.0 °F 30.0 in SE 12 mph 13 mph 77% 0.000 in 0.00 W/m2
21:14 78.0 °F 70.0 °F 30.0 in SE 10 mph 13 mph 77% 0.000 in 0.00 W/m2
21:19 78.0 °F 70.0 °F 30.0 in SE 9 mph 13 mph 78% 0.000 in 0.00 W/m2
21:24 78.0 °F 70.0 °F 30.0 in SSE 12 mph 12 mph 78% 0.000 in 0.00 W/m2
21:29 77.0 °F 70.0 °F 30.0 in SSE 12 mph 12 mph 78% 0.000 in 0.00 W/m2
21:34 77.0 °F 70.0 °F 30.0 in SE 7 mph 10 mph 78% 0.000 in 0.00 W/m2
21:39 77.0 °F 70.0 °F 30.0 in SE 5 mph 7 mph 79% 0.000 in 0.00 W/m2
21:44 77.0 °F 70.0 °F 30.0 in SE 8 mph 8 mph 79% 0.000 in 0.00 W/m2
21:49 77.0 °F 70.0 °F 30.0 in SE 9 mph 11 mph 79% 0.000 in 0.00 W/m2
21:54 77.0 °F 70.0 °F 30.0 in SSE 7 mph 11 mph 79% 0.000 in 0.00 W/m2
21:59 77.0 °F 70.0 °F 30.0 in SE 8 mph 9 mph 79% 0.000 in 0.00 W/m2
22:04 77.0 °F 70.0 °F 30.0 in SE 8 mph 12 mph 79% 0.000 in 0.00 W/m2
22:09 77.0 °F 70.0 °F 30.0 in SE 9 mph 12 mph 79% 0.000 in 0.00 W/m2
22:14 77.0 °F 70.0 °F 30.0 in SSE 9 mph 10 mph 79% 0.000 in 0.00 W/m2
22:19 77.0 °F 70.0 °F 30.0 in SSE 7 mph 8 mph 80% 0.000 in 0.00 W/m2
22:24 77.0 °F 70.0 °F 30.0 in SE 8 mph 11 mph 80% 0.000 in 0.00 W/m2
22:29 77.0 °F 70.0 °F 30.0 in SE 8 mph 9 mph 80% 0.000 in 0.00 W/m2
22:34 77.0 °F 70.0 °F 30.0 in SE 9 mph 12 mph 80% 0.000 in 0.00 W/m2
22:39 77.0 °F 70.0 °F 30.0 in SE 9 mph 9 mph 80% 0.000 in 0.00 W/m2
22:44 77.0 °F 70.0 °F 30.0 in SE 11 mph 14 mph 80% 0.000 in 0.00 W/m2
22:49 77.0 °F 70.0 °F 30.0 in SE 9 mph 12 mph 81% 0.000 in 0.00 W/m2
22:54 77.0 °F 70.0 °F 30.0 in SE 11 mph 11 mph 81% 0.000 in 0.00 W/m2
22:59 77.0 °F 70.0 °F 30.0 in SE 10 mph 11 mph 81% 0.000 in 0.00 W/m2
23:04 77.0 °F 70.0 °F 30.0 in SE 13 mph 13 mph 81% 0.000 in 0.00 W/m2
23:09 77.0 °F 70.0 °F 30.0 in SSE 6 mph 8 mph 81% 0.000 in 0.00 W/m2
23:14 77.0 °F 70.0 °F 30.0 in SSE 7 mph 9 mph 81% 0.000 in 0.00 W/m2
23:19 77.0 °F 70.0 °F 30.0 in SE 8 mph 8 mph 81% 0.000 in 0.00 W/m2
23:24 77.0 °F 71.0 °F 30.0 in SE 10 mph 11 mph 82% 0.000 in 0.00 W/m2
23:29 77.0 °F 71.0 °F 30.0 in SE 8 mph 10 mph 82% 0.000 in 0.00 W/m2
23:34 77.0 °F 71.0 °F 30.0 in SSE 11 mph 11 mph 82% 0.000 in 0.00 W/m2
23:39 76.0 °F 70.0 °F 30.0 in SE 6 mph 8 mph 82% 0.000 in 0.00 W/m2
23:44 76.0 °F 70.0 °F 30.0 in SSE 8 mph 8 mph 82% 0.000 in 0.00 W/m2
23:49 76.0 °F 70.0 °F 30.0 in SSE 8 mph 9 mph 82% 0.000 in 0.00 W/m2
23:54 76.0 °F 70.0 °F 30.0 in South 5 mph 5 mph 82% 0.000 in 0.00 W/m2
23:59 76.0 °F 70.0 °F 30.0 in South 6 mph 6 mph 82% 0.000 in 0.00 W/m2
Villages of Bridgestone, Spring, TX USA
Compliments of Weather Underground - 4 mb